sensor_id;sensor_type;location;lat;lon;timestamp;P1;durP1;ratioP1;P2;durP2;ratioP2
19826;SDS011;10074;52.018;4.726;2023-11-21T00:02:47;2.17;;;1.87;;
19826;SDS011;10074;52.018;4.726;2023-11-21T00:07:47;1.40;;;1.30;;
19826;SDS011;10074;52.018;4.726;2023-11-21T00:12:48;1.80;;;1.37;;
19826;SDS011;10074;52.018;4.726;2023-11-21T00:17:48;1.83;;;1.70;;
19826;SDS011;10074;52.018;4.726;2023-11-21T00:22:48;8.37;;;2.50;;
19826;SDS011;10074;52.018;4.726;2023-11-21T00:27:49;1.83;;;1.73;;
19826;SDS011;10074;52.018;4.726;2023-11-21T00:32:49;1.23;;;1.13;;
19826;SDS011;10074;52.018;4.726;2023-11-21T00:37:49;1.33;;;1.23;;
19826;SDS011;10074;52.018;4.726;2023-11-21T00:42:50;2.00;;;1.50;;
19826;SDS011;10074;52.018;4.726;2023-11-21T00:47:50;2.47;;;2.20;;
19826;SDS011;10074;52.018;4.726;2023-11-21T00:52:51;4.07;;;1.77;;
19826;SDS011;10074;52.018;4.726;2023-11-21T00:57:51;1.40;;;1.30;;
19826;SDS011;10074;52.018;4.726;2023-11-21T01:02:52;3.57;;;2.20;;
19826;SDS011;10074;52.018;4.726;2023-11-21T01:07:52;2.87;;;2.13;;
19826;SDS011;10074;52.018;4.726;2023-11-21T01:12:52;3.67;;;2.23;;
19826;SDS011;10074;52.018;4.726;2023-11-21T01:17:53;2.23;;;1.70;;
19826;SDS011;10074;52.018;4.726;2023-11-21T01:22:53;1.47;;;1.37;;
19826;SDS011;10074;52.018;4.726;2023-11-21T01:27:53;2.20;;;1.30;;
19826;SDS011;10074;52.018;4.726;2023-11-21T01:32:54;1.50;;;1.40;;
19826;SDS011;10074;52.018;4.726;2023-11-21T01:37:54;2.10;;;2.00;;
19826;SDS011;10074;52.018;4.726;2023-11-21T01:42:54;2.30;;;1.63;;
19826;SDS011;10074;52.018;4.726;2023-11-21T01:47:55;1.50;;;1.40;;
19826;SDS011;10074;52.018;4.726;2023-11-21T01:52:55;5.10;;;2.07;;
19826;SDS011;10074;52.018;4.726;2023-11-21T01:57:56;2.47;;;1.87;;
19826;SDS011;10074;52.018;4.726;2023-11-21T02:02:57;1.83;;;1.43;;
19826;SDS011;10074;52.018;4.726;2023-11-21T02:07:59;2.13;;;1.93;;
19826;SDS011;10074;52.018;4.726;2023-11-21T02:13:00;2.20;;;1.67;;
19826;SDS011;10074;52.018;4.726;2023-11-21T02:18:02;2.10;;;1.70;;
19826;SDS011;10074;52.018;4.726;2023-11-21T02:23:03;2.23;;;1.67;;
19826;SDS011;10074;52.018;4.726;2023-11-21T02:28:05;2.07;;;1.97;;
19826;SDS011;10074;52.018;4.726;2023-11-21T02:33:06;1.63;;;1.53;;
19826;SDS011;10074;52.018;4.726;2023-11-21T02:38:07;2.47;;;1.47;;
19826;SDS011;10074;52.018;4.726;2023-11-21T02:43:07;2.50;;;2.20;;
19826;SDS011;10074;52.018;4.726;2023-11-21T02:48:07;2.23;;;2.07;;
19826;SDS011;10074;52.018;4.726;2023-11-21T02:53:08;2.17;;;1.77;;
19826;SDS011;10074;52.018;4.726;2023-11-21T02:58:10;6.20;;;2.00;;
19826;SDS011;10074;52.018;4.726;2023-11-21T03:03:10;1.43;;;1.33;;
19826;SDS011;10074;52.018;4.726;2023-11-21T03:08:11;1.57;;;1.47;;
19826;SDS011;10074;52.018;4.726;2023-11-21T03:13:11;1.30;;;1.20;;
19826;SDS011;10074;52.018;4.726;2023-11-21T03:18:11;1.07;;;1.07;;
19826;SDS011;10074;52.018;4.726;2023-11-21T03:23:13;1.40;;;1.30;;
19826;SDS011;10074;52.018;4.726;2023-11-21T03:28:13;1.73;;;1.63;;
19826;SDS011;10074;52.018;4.726;2023-11-21T03:33:13;1.77;;;1.67;;
19826;SDS011;10074;52.018;4.726;2023-11-21T03:38:14;1.77;;;1.60;;
19826;SDS011;10074;52.018;4.726;2023-11-21T03:43:14;2.90;;;1.37;;
19826;SDS011;10074;52.018;4.726;2023-11-21T03:48:14;2.40;;;1.10;;
19826;SDS011;10074;52.018;4.726;2023-11-21T03:53:15;1.53;;;1.43;;
19826;SDS011;10074;52.018;4.726;2023-11-21T03:58:15;3.20;;;2.35;;
19826;SDS011;10074;52.018;4.726;2023-11-21T04:03:15;2.57;;;2.37;;
19826;SDS011;10074;52.018;4.726;2023-11-21T04:08:16;3.27;;;2.20;;
19826;SDS011;10074;52.018;4.726;2023-11-21T04:13:16;1.67;;;1.20;;
19826;SDS011;10074;52.018;4.726;2023-11-21T04:18:16;1.87;;;1.63;;
19826;SDS011;10074;52.018;4.726;2023-11-21T04:23:16;1.80;;;1.70;;
19826;SDS011;10074;52.018;4.726;2023-11-21T04:28:17;1.23;;;1.13;;
19826;SDS011;10074;52.018;4.726;2023-11-21T04:33:17;1.73;;;1.27;;
19826;SDS011;10074;52.018;4.726;2023-11-21T04:38:17;3.55;;;1.17;;
19826;SDS011;10074;52.018;4.726;2023-11-21T04:43:19;1.77;;;1.67;;
19826;SDS011;10074;52.018;4.726;2023-11-21T04:48:19;1.27;;;1.17;;
19826;SDS011;10074;52.018;4.726;2023-11-21T04:53:19;2.40;;;2.00;;
19826;SDS011;10074;52.018;4.726;2023-11-21T04:58:20;1.30;;;1.20;;
19826;SDS011;10074;52.018;4.726;2023-11-21T05:03:20;2.00;;;1.17;;
19826;SDS011;10074;52.018;4.726;2023-11-21T05:08:21;1.70;;;1.60;;
19826;SDS011;10074;52.018;4.726;2023-11-21T05:13:22;2.27;;;1.80;;
19826;SDS011;10074;52.018;4.726;2023-11-21T05:18:27;1.63;;;1.40;;
19826;SDS011;10074;52.018;4.726;2023-11-21T05:23:27;1.50;;;1.10;;
19826;SDS011;10074;52.018;4.726;2023-11-21T05:28:27;3.90;;;1.73;;
19826;SDS011;10074;52.018;4.726;2023-11-21T05:33:28;2.70;;;0.87;;
19826;SDS011;10074;52.018;4.726;2023-11-21T05:38:28;0.93;;;0.83;;
19826;SDS011;10074;52.018;4.726;2023-11-21T05:43:29;3.20;;;1.50;;
19826;SDS011;10074;52.018;4.726;2023-11-21T05:48:30;2.23;;;1.47;;
19826;SDS011;10074;52.018;4.726;2023-11-21T05:53:31;6.40;;;1.97;;
19826;SDS011;10074;52.018;4.726;2023-11-21T05:58:31;1.33;;;1.23;;
19826;SDS011;10074;52.018;4.726;2023-11-21T06:03:32;2.83;;;1.23;;
19826;SDS011;10074;52.018;4.726;2023-11-21T06:08:32;1.10;;;1.10;;
19826;SDS011;10074;52.018;4.726;2023-11-21T06:13:32;1.63;;;1.23;;
19826;SDS011;10074;52.018;4.726;2023-11-21T06:18:33;1.23;;;1.13;;
19826;SDS011;10074;52.018;4.726;2023-11-21T06:23:33;1.10;;;0.97;;
19826;SDS011;10074;52.018;4.726;2023-11-21T06:28:36;1.47;;;1.30;;
19826;SDS011;10074;52.018;4.726;2023-11-21T06:33:36;2.10;;;1.77;;
19826;SDS011;10074;52.018;4.726;2023-11-21T06:38:38;1.53;;;1.30;;
19826;SDS011;10074;52.018;4.726;2023-11-21T06:43:38;3.50;;;1.67;;
19826;SDS011;10074;52.018;4.726;2023-11-21T06:48:38;2.27;;;1.30;;
19826;SDS011;10074;52.018;4.726;2023-11-21T06:53:39;1.50;;;1.40;;
19826;SDS011;10074;52.018;4.726;2023-11-21T06:58:40;1.90;;;1.23;;
19826;SDS011;10074;52.018;4.726;2023-11-21T07:03:40;1.60;;;1.23;;
19826;SDS011;10074;52.018;4.726;2023-11-21T07:08:41;1.43;;;1.33;;
19826;SDS011;10074;52.018;4.726;2023-11-21T07:13:42;0.93;;;0.90;;
19826;SDS011;10074;52.018;4.726;2023-11-21T07:18:43;1.60;;;1.33;;
19826;SDS011;10074;52.018;4.726;2023-11-21T07:23:43;1.30;;;1.17;;
19826;SDS011;10074;52.018;4.726;2023-11-21T07:28:43;0.87;;;0.80;;
19826;SDS011;10074;52.018;4.726;2023-11-21T07:33:43;1.00;;;1.00;;
19826;SDS011;10074;52.018;4.726;2023-11-21T07:38:47;1.97;;;1.10;;
19826;SDS011;10074;52.018;4.726;2023-11-21T07:43:48;2.83;;;1.63;;
19826;SDS011;10074;52.018;4.726;2023-11-21T07:48:48;0.80;;;0.80;;
19826;SDS011;10074;52.018;4.726;2023-11-21T07:53:48;0.73;;;0.73;;
19826;SDS011;10074;52.018;4.726;2023-11-21T07:58:49;2.30;;;0.90;;
19826;SDS011;10074;52.018;4.726;2023-11-21T08:03:50;1.33;;;1.23;;
19826;SDS011;10074;52.018;4.726;2023-11-21T08:08:52;0.87;;;0.83;;
19826;SDS011;10074;52.018;4.726;2023-11-21T08:13:53;4.13;;;1.03;;
19826;SDS011;10074;52.018;4.726;2023-11-21T08:18:54;2.07;;;0.87;;
19826;SDS011;10074;52.018;4.726;2023-11-21T08:23:54;1.00;;;0.97;;
19826;SDS011;10074;52.018;4.726;2023-11-21T08:28:55;2.83;;;0.77;;
19826;SDS011;10074;52.018;4.726;2023-11-21T08:33:56;1.13;;;0.90;;
19826;SDS011;10074;52.018;4.726;2023-11-21T08:38:57;3.17;;;1.43;;
19826;SDS011;10074;52.018;4.726;2023-11-21T08:43:57;0.83;;;0.83;;
19826;SDS011;10074;52.018;4.726;2023-11-21T08:48:58;0.70;;;0.70;;
19826;SDS011;10074;52.018;4.726;2023-11-21T08:53:58;1.13;;;1.00;;
19826;SDS011;10074;52.018;4.726;2023-11-21T08:59:00;1.33;;;0.73;;
19826;SDS011;10074;52.018;4.726;2023-11-21T09:04:02;0.90;;;0.90;;
19826;SDS011;10074;52.018;4.726;2023-11-21T09:09:02;2.33;;;0.90;;
19826;SDS011;10074;52.018;4.726;2023-11-21T09:14:05;0.60;;;0.60;;
19826;SDS011;10074;52.018;4.726;2023-11-21T09:19:06;1.47;;;0.93;;
19826;SDS011;10074;52.018;4.726;2023-11-21T09:24:06;1.20;;;1.00;;
19826;SDS011;10074;52.018;4.726;2023-11-21T09:29:09;0.80;;;0.80;;
19826;SDS011;10074;52.018;4.726;2023-11-21T09:34:09;0.60;;;0.60;;
19826;SDS011;10074;52.018;4.726;2023-11-21T09:39:11;1.53;;;0.70;;
19826;SDS011;10074;52.018;4.726;2023-11-21T09:44:15;0.70;;;0.70;;
19826;SDS011;10074;52.018;4.726;2023-11-21T09:49:18;0.77;;;0.77;;
19826;SDS011;10074;52.018;4.726;2023-11-21T09:54:25;1.47;;;1.27;;
19826;SDS011;10074;52.018;4.726;2023-11-21T09:59:28;1.23;;;0.67;;
19826;SDS011;10074;52.018;4.726;2023-11-21T10:04:30;1.83;;;0.80;;
19826;SDS011;10074;52.018;4.726;2023-11-21T10:09:31;0.93;;;0.83;;
19826;SDS011;10074;52.018;4.726;2023-11-21T10:14:32;0.80;;;0.80;;
19826;SDS011;10074;52.018;4.726;2023-11-21T10:19:34;1.37;;;0.87;;
19826;SDS011;10074;52.018;4.726;2023-11-21T10:24:35;1.00;;;1.00;;
19826;SDS011;10074;52.018;4.726;2023-11-21T10:29:38;2.37;;;1.67;;
19826;SDS011;10074;52.018;4.726;2023-11-21T10:34:39;1.20;;;1.07;;
19826;SDS011;10074;52.018;4.726;2023-11-21T10:39:41;1.60;;;1.10;;
19826;SDS011;10074;52.018;4.726;2023-11-21T10:44:45;1.40;;;1.30;;
19826;SDS011;10074;52.018;4.726;2023-11-21T10:49:48;0.60;;;0.53;;
19826;SDS011;10074;52.018;4.726;2023-11-21T10:54:49;1.13;;;0.70;;
19826;SDS011;10074;52.018;4.726;2023-11-21T10:59:49;4.83;;;0.90;;
19826;SDS011;10074;52.018;4.726;2023-11-21T11:04:50;0.93;;;0.93;;
19826;SDS011;10074;52.018;4.726;2023-11-21T11:09:53;0.70;;;0.70;;
19826;SDS011;10074;52.018;4.726;2023-11-21T11:14:54;2.83;;;0.60;;
19826;SDS011;10074;52.018;4.726;2023-11-21T11:19:56;0.60;;;0.60;;
19826;SDS011;10074;52.018;4.726;2023-11-21T11:25:08;1.53;;;1.10;;
19826;SDS011;10074;52.018;4.726;2023-11-21T11:35:46;1.17;;;0.80;;
19826;SDS011;10074;52.018;4.726;2023-11-21T11:40:54;1.00;;;0.90;;
19826;SDS011;10074;52.018;4.726;2023-11-21T11:45:58;1.00;;;0.90;;
19826;SDS011;10074;52.018;4.726;2023-11-21T12:01:28;0.63;;;0.53;;
19826;SDS011;10074;52.018;4.726;2023-11-21T12:06:33;0.40;;;0.40;;
19826;SDS011;10074;52.018;4.726;2023-11-21T12:11:34;1.30;;;1.20;;
19826;SDS011;10074;52.018;4.726;2023-11-21T12:16:36;1.13;;;1.07;;
19826;SDS011;10074;52.018;4.726;2023-11-21T12:21:37;2.37;;;0.60;;
19826;SDS011;10074;52.018;4.726;2023-11-21T12:26:42;0.87;;;0.70;;
19826;SDS011;10074;52.018;4.726;2023-11-21T12:31:42;0.60;;;0.60;;
19826;SDS011;10074;52.018;4.726;2023-11-21T12:36:43;0.83;;;0.67;;
19826;SDS011;10074;52.018;4.726;2023-11-21T12:41:44;0.80;;;0.50;;
19826;SDS011;10074;52.018;4.726;2023-11-21T12:46:45;0.70;;;0.57;;
19826;SDS011;10074;52.018;4.726;2023-11-21T12:51:45;4.30;;;1.27;;
19826;SDS011;10074;52.018;4.726;2023-11-21T12:56:46;1.10;;;0.90;;
19826;SDS011;10074;52.018;4.726;2023-11-21T13:01:50;2.00;;;1.03;;
19826;SDS011;10074;52.018;4.726;2023-11-21T13:06:51;0.80;;;0.80;;
19826;SDS011;10074;52.018;4.726;2023-11-21T13:11:58;0.70;;;0.70;;
19826;SDS011;10074;52.018;4.726;2023-11-21T13:17:00;0.50;;;0.50;;
19826;SDS011;10074;52.018;4.726;2023-11-21T13:22:00;0.57;;;0.57;;
19826;SDS011;10074;52.018;4.726;2023-11-21T13:27:04;0.50;;;0.50;;
19826;SDS011;10074;52.018;4.726;2023-11-21T13:32:04;0.63;;;0.63;;
19826;SDS011;10074;52.018;4.726;2023-11-21T13:37:06;1.23;;;0.93;;
19826;SDS011;10074;52.018;4.726;2023-11-21T13:42:07;0.87;;;0.73;;
19826;SDS011;10074;52.018;4.726;2023-11-21T13:47:08;1.07;;;0.77;;
19826;SDS011;10074;52.018;4.726;2023-11-21T13:52:08;1.30;;;0.60;;
19826;SDS011;10074;52.018;4.726;2023-11-21T13:57:11;0.80;;;0.80;;
19826;SDS011;10074;52.018;4.726;2023-11-21T14:02:11;0.67;;;0.63;;
19826;SDS011;10074;52.018;4.726;2023-11-21T14:07:18;1.57;;;1.00;;
19826;SDS011;10074;52.018;4.726;2023-11-21T14:12:35;0.50;;;0.50;;
19826;SDS011;10074;52.018;4.726;2023-11-21T14:17:37;0.40;;;0.40;;
19826;SDS011;10074;52.018;4.726;2023-11-21T14:22:40;2.30;;;0.63;;
19826;SDS011;10074;52.018;4.726;2023-11-21T14:27:40;0.90;;;0.60;;
19826;SDS011;10074;52.018;4.726;2023-11-21T14:32:40;1.13;;;0.73;;
19826;SDS011;10074;52.018;4.726;2023-11-21T14:37:41;0.77;;;0.60;;
19826;SDS011;10074;52.018;4.726;2023-11-21T14:42:42;1.80;;;0.60;;
19826;SDS011;10074;52.018;4.726;2023-11-21T14:47:42;0.77;;;0.77;;
19826;SDS011;10074;52.018;4.726;2023-11-21T14:52:48;0.83;;;0.83;;
19826;SDS011;10074;52.018;4.726;2023-11-21T14:57:59;1.03;;;0.70;;
19826;SDS011;10074;52.018;4.726;2023-11-21T15:03:04;1.00;;;0.83;;
19826;SDS011;10074;52.018;4.726;2023-11-21T15:08:04;3.23;;;1.03;;
19826;SDS011;10074;52.018;4.726;2023-11-21T15:13:21;1.03;;;1.00;;
19826;SDS011;10074;52.018;4.726;2023-11-21T15:18:23;0.87;;;0.87;;
19826;SDS011;10074;52.018;4.726;2023-11-21T15:23:24;0.70;;;0.63;;
19826;SDS011;10074;52.018;4.726;2023-11-21T15:28:24;0.57;;;0.57;;
19826;SDS011;10074;52.018;4.726;2023-11-21T15:33:25;3.57;;;0.70;;
19826;SDS011;10074;52.018;4.726;2023-11-21T15:38:27;0.60;;;0.60;;
19826;SDS011;10074;52.018;4.726;2023-11-21T15:43:28;1.73;;;1.20;;
19826;SDS011;10074;52.018;4.726;2023-11-21T15:48:28;0.40;;;0.40;;
19826;SDS011;10074;52.018;4.726;2023-11-21T15:53:30;0.70;;;0.70;;
19826;SDS011;10074;52.018;4.726;2023-11-21T15:58:32;1.17;;;0.87;;
19826;SDS011;10074;52.018;4.726;2023-11-21T16:03:32;1.00;;;0.80;;
19826;SDS011;10074;52.018;4.726;2023-11-21T16:08:33;0.70;;;0.50;;
19826;SDS011;10074;52.018;4.726;2023-11-21T16:13:36;3.50;;;1.00;;
19826;SDS011;10074;52.018;4.726;2023-11-21T16:18:36;0.60;;;0.60;;
19826;SDS011;10074;52.018;4.726;2023-11-21T16:23:36;0.95;;;0.95;;
19826;SDS011;10074;52.018;4.726;2023-11-21T16:28:37;1.50;;;1.40;;
19826;SDS011;10074;52.018;4.726;2023-11-21T16:33:38;0.77;;;0.77;;
19826;SDS011;10074;52.018;4.726;2023-11-21T16:38:39;0.47;;;0.47;;
19826;SDS011;10074;52.018;4.726;2023-11-21T16:43:39;0.80;;;0.70;;
19826;SDS011;10074;52.018;4.726;2023-11-21T16:48:40;0.80;;;0.80;;
19826;SDS011;10074;52.018;4.726;2023-11-21T16:53:40;0.93;;;0.93;;
19826;SDS011;10074;52.018;4.726;2023-11-21T16:58:42;0.63;;;0.60;;
19826;SDS011;10074;52.018;4.726;2023-11-21T17:03:43;1.33;;;1.23;;
19826;SDS011;10074;52.018;4.726;2023-11-21T17:08:44;0.70;;;0.70;;
19826;SDS011;10074;52.018;4.726;2023-11-21T17:13:48;0.40;;;0.40;;
19826;SDS011;10074;52.018;4.726;2023-11-21T17:18:49;0.80;;;0.80;;
19826;SDS011;10074;52.018;4.726;2023-11-21T17:23:49;0.70;;;0.70;;
19826;SDS011;10074;52.018;4.726;2023-11-21T17:28:50;0.70;;;0.70;;
19826;SDS011;10074;52.018;4.726;2023-11-21T17:33:50;0.70;;;0.70;;
19826;SDS011;10074;52.018;4.726;2023-11-21T17:38:53;0.73;;;0.50;;
19826;SDS011;10074;52.018;4.726;2023-11-21T17:43:54;0.90;;;0.90;;
19826;SDS011;10074;52.018;4.726;2023-11-21T17:48:54;0.60;;;0.60;;
19826;SDS011;10074;52.018;4.726;2023-11-21T17:53:54;1.10;;;1.00;;
19826;SDS011;10074;52.018;4.726;2023-11-21T17:59:01;0.70;;;0.70;;
19826;SDS011;10074;52.018;4.726;2023-11-21T18:04:02;0.90;;;0.80;;
19826;SDS011;10074;52.018;4.726;2023-11-21T18:09:04;0.77;;;0.67;;
19826;SDS011;10074;52.018;4.726;2023-11-21T18:14:07;1.27;;;0.87;;
19826;SDS011;10074;52.018;4.726;2023-11-21T18:19:09;1.13;;;1.03;;
19826;SDS011;10074;52.018;4.726;2023-11-21T18:24:10;2.37;;;2.17;;
19826;SDS011;10074;52.018;4.726;2023-11-21T18:29:10;0.93;;;0.93;;
19826;SDS011;10074;52.018;4.726;2023-11-21T18:34:10;1.00;;;0.97;;
19826;SDS011;10074;52.018;4.726;2023-11-21T18:39:11;0.67;;;0.67;;
19826;SDS011;10074;52.018;4.726;2023-11-21T18:44:14;0.90;;;0.73;;
19826;SDS011;10074;52.018;4.726;2023-11-21T18:49:14;1.13;;;1.07;;
19826;SDS011;10074;52.018;4.726;2023-11-21T18:54:15;1.43;;;1.00;;
19826;SDS011;10074;52.018;4.726;2023-11-21T18:59:16;0.70;;;0.70;;
19826;SDS011;10074;52.018;4.726;2023-11-21T19:04:16;1.63;;;1.53;;
19826;SDS011;10074;52.018;4.726;2023-11-21T19:09:20;1.03;;;0.97;;
19826;SDS011;10074;52.018;4.726;2023-11-21T19:14:21;0.60;;;0.60;;
19826;SDS011;10074;52.018;4.726;2023-11-21T19:19:22;0.93;;;0.87;;
19826;SDS011;10074;52.018;4.726;2023-11-21T19:24:22;1.00;;;1.00;;
19826;SDS011;10074;52.018;4.726;2023-11-21T19:29:22;0.73;;;0.73;;
19826;SDS011;10074;52.018;4.726;2023-11-21T19:34:23;1.10;;;0.93;;
19826;SDS011;10074;52.018;4.726;2023-11-21T19:39:25;0.80;;;0.80;;
19826;SDS011;10074;52.018;4.726;2023-11-21T19:44:25;1.10;;;0.80;;
19826;SDS011;10074;52.018;4.726;2023-11-21T19:49:25;1.20;;;0.83;;
19826;SDS011;10074;52.018;4.726;2023-11-21T19:54:26;0.90;;;0.90;;
19826;SDS011;10074;52.018;4.726;2023-11-21T19:59:26;1.27;;;1.10;;
19826;SDS011;10074;52.018;4.726;2023-11-21T20:04:26;1.07;;;1.07;;
19826;SDS011;10074;52.018;4.726;2023-11-21T20:09:26;1.67;;;1.40;;
19826;SDS011;10074;52.018;4.726;2023-11-21T20:14:27;1.37;;;1.27;;
19826;SDS011;10074;52.018;4.726;2023-11-21T20:19:29;1.87;;;1.00;;
19826;SDS011;10074;52.018;4.726;2023-11-21T20:24:30;1.17;;;1.07;;
19826;SDS011;10074;52.018;4.726;2023-11-21T20:29:31;1.33;;;1.13;;
19826;SDS011;10074;52.018;4.726;2023-11-21T20:34:31;1.20;;;1.10;;
19826;SDS011;10074;52.018;4.726;2023-11-21T20:39:32;1.40;;;1.30;;
19826;SDS011;10074;52.018;4.726;2023-11-21T20:44:33;1.53;;;0.97;;
19826;SDS011;10074;52.018;4.726;2023-11-21T20:49:34;0.93;;;0.93;;
19826;SDS011;10074;52.018;4.726;2023-11-21T20:54:34;2.63;;;1.77;;
19826;SDS011;10074;52.018;4.726;2023-11-21T20:59:34;4.00;;;1.57;;
19826;SDS011;10074;52.018;4.726;2023-11-21T21:04:35;1.30;;;1.20;;
19826;SDS011;10074;52.018;4.726;2023-11-21T21:09:36;1.63;;;1.50;;
19826;SDS011;10074;52.018;4.726;2023-11-21T21:14:37;2.27;;;2.07;;
19826;SDS011;10074;52.018;4.726;2023-11-21T21:19:38;2.03;;;1.93;;
19826;SDS011;10074;52.018;4.726;2023-11-21T21:24:39;3.27;;;2.03;;
19826;SDS011;10074;52.018;4.726;2023-11-21T21:29:40;1.63;;;1.20;;
19826;SDS011;10074;52.018;4.726;2023-11-21T21:34:40;1.30;;;1.20;;
19826;SDS011;10074;52.018;4.726;2023-11-21T21:39:40;1.60;;;1.50;;
19826;SDS011;10074;52.018;4.726;2023-11-21T21:44:41;1.30;;;1.20;;
19826;SDS011;10074;52.018;4.726;2023-11-21T21:49:41;2.77;;;2.40;;
19826;SDS011;10074;52.018;4.726;2023-11-21T21:54:42;1.20;;;1.10;;
19826;SDS011;10074;52.018;4.726;2023-11-21T21:59:42;2.03;;;1.27;;
19826;SDS011;10074;52.018;4.726;2023-11-21T22:04:42;4.23;;;1.43;;
19826;SDS011;10074;52.018;4.726;2023-11-21T22:09:43;1.93;;;1.77;;
19826;SDS011;10074;52.018;4.726;2023-11-21T22:14:43;1.93;;;1.73;;
19826;SDS011;10074;52.018;4.726;2023-11-21T22:19:43;2.53;;;1.20;;
19826;SDS011;10074;52.018;4.726;2023-11-21T22:24:44;1.43;;;0.93;;
19826;SDS011;10074;52.018;4.726;2023-11-21T22:29:44;1.13;;;1.13;;
19826;SDS011;10074;52.018;4.726;2023-11-21T22:34:44;1.23;;;1.13;;
19826;SDS011;10074;52.018;4.726;2023-11-21T22:39:45;1.30;;;1.20;;
19826;SDS011;10074;52.018;4.726;2023-11-21T22:44:46;2.27;;;2.07;;
19826;SDS011;10074;52.018;4.726;2023-11-21T22:49:46;1.10;;;1.00;;
19826;SDS011;10074;52.018;4.726;2023-11-21T22:54:47;3.17;;;1.47;;
19826;SDS011;10074;52.018;4.726;2023-11-21T22:59:47;2.17;;;1.50;;
19826;SDS011;10074;52.018;4.726;2023-11-21T23:04:48;1.60;;;1.50;;
19826;SDS011;10074;52.018;4.726;2023-11-21T23:09:49;2.03;;;1.93;;
19826;SDS011;10074;52.018;4.726;2023-11-21T23:14:49;1.30;;;1.20;;
19826;SDS011;10074;52.018;4.726;2023-11-21T23:19:52;1.80;;;1.70;;
19826;SDS011;10074;52.018;4.726;2023-11-21T23:24:53;1.93;;;1.57;;
19826;SDS011;10074;52.018;4.726;2023-11-21T23:29:55;3.03;;;1.53;;
19826;SDS011;10074;52.018;4.726;2023-11-21T23:34:56;1.87;;;1.63;;
19826;SDS011;10074;52.018;4.726;2023-11-21T23:39:57;2.93;;;1.40;;
19826;SDS011;10074;52.018;4.726;2023-11-21T23:44:59;1.20;;;1.10;;
19826;SDS011;10074;52.018;4.726;2023-11-21T23:50:01;1.50;;;1.30;;
19826;SDS011;10074;52.018;4.726;2023-11-21T23:55:04;0.90;;;0.90;;
